Terminal Aerodrome Forecast
Issued by NWS Shreveport, LA

Home | Current Version | Previous Version | Text Only | Print | Product List | Glossary On
Versions: 1 2 3 4 5 6 7 8 9 10 11 12 13 14 15
000
FTUS44 KSHV 171744
TAFMLU
TAF
KMLU 171744Z 1718/1818 19010G16KT P6SM FEW025
     FM172000 19011KT P6SM SCT035 SCT300
     FM180000 18009KT P6SM BKN040
     FM180400 18011KT P6SM BKN025
     FM180700 20011KT P6SM BKN018
     FM181500 22013G18KT P6SM BKN017=

USA.gov is the U.S. government's official web portal to all federal, state and local government web resources and services.